createdAt,value
2019-02-02T00:01:00.375Z,37.00
2019-02-02T00:04:06.009Z,35.20
2019-02-02T00:07:11.040Z,37.20
2019-02-02T00:10:16.210Z,35.83
2019-02-02T00:13:21.055Z,37.20
2019-02-02T00:16:26.142Z,36.20
2019-02-02T00:19:31.337Z,34.50
2019-02-02T00:22:36.917Z,36.73
2019-02-02T00:25:41.957Z,33.77
2019-02-02T00:28:46.904Z,33.80
2019-02-02T00:31:51.988Z,35.23
2019-02-02T00:34:56.968Z,37.03
2019-02-02T00:38:02.169Z,36.07
2019-02-02T00:41:08.039Z,36.57
2019-02-02T00:44:13.254Z,34.07
2019-02-02T00:47:18.393Z,36.20
2019-02-02T00:50:23.373Z,36.27
2019-02-02T00:53:28.371Z,35.73
2019-02-02T00:56:33.617Z,37.40
2019-02-02T00:59:38.707Z,37.10
2019-02-02T01:02:43.741Z,37.17
2019-02-02T01:05:48.733Z,37.20
2019-02-02T01:08:53.911Z,36.67
2019-02-02T01:11:58.989Z,39.00
2019-02-02T01:15:22.835Z,39.03
2019-02-02T01:18:27.719Z,33.23
2019-02-02T01:21:32.714Z,33.97
2019-02-02T01:24:37.579Z,34.70
2019-02-02T01:27:43.310Z,37.58
2019-02-02T01:30:48.260Z,35.07
2019-02-02T01:33:53.359Z,32.57
2019-02-02T01:36:58.619Z,34.53
2019-02-02T01:40:04.352Z,35.37
2019-02-02T01:43:09.515Z,36.60
2019-02-02T01:46:14.462Z,35.90
2019-02-02T01:49:19.447Z,33.47
2019-02-02T01:52:24.653Z,31.37
2019-02-02T01:55:29.700Z,34.90
2019-02-02T01:58:34.828Z,34.57
2019-02-02T02:01:41.554Z,32.37
2019-02-02T02:04:46.370Z,33.17
2019-02-02T02:07:51.580Z,33.27
2019-02-02T02:10:58.241Z,31.90
2019-02-02T02:14:03.924Z,33.00
2019-02-02T02:17:08.925Z,30.77
2019-02-02T02:20:14.458Z,31.10
2019-02-02T02:23:19.338Z,30.10
2019-02-02T02:26:24.396Z,30.13
2019-02-02T02:29:29.306Z,29.50
2019-02-02T02:32:34.464Z,28.87
2019-02-02T02:35:39.369Z,30.90
2019-02-02T02:38:44.387Z,29.50
2019-02-02T02:41:49.440Z,28.60
2019-02-02T02:44:54.621Z,29.87
2019-02-02T02:47:59.632Z,31.43
2019-02-02T02:51:04.901Z,27.87
2019-02-02T02:54:10.210Z,28.80
2019-02-02T02:57:15.329Z,29.10
2019-02-02T03:00:22.405Z,28.47
2019-02-02T03:03:27.312Z,27.17
2019-02-02T03:06:32.414Z,29.20
2019-02-02T03:09:37.396Z,29.43
2019-02-02T03:12:42.907Z,27.37
2019-02-02T03:15:48.099Z,25.87
2019-02-02T03:18:53.075Z,27.27
2019-02-02T03:21:58.070Z,24.97
2019-02-02T03:25:03.053Z,24.30
2019-02-02T03:28:08.068Z,24.10
2019-02-02T03:31:13.054Z,23.43
2019-02-02T03:34:18.167Z,23.67
2019-02-02T03:37:23.157Z,24.60
2019-02-02T03:40:28.105Z,22.37
2019-02-02T03:43:33.193Z,22.97
2019-02-02T03:46:38.492Z,22.40
2019-02-02T03:49:44.931Z,22.20
2019-02-02T03:52:49.933Z,22.23
2019-02-02T03:55:55.102Z,23.33
2019-02-02T03:59:06.566Z,21.80
2019-02-02T04:02:07.015Z,22.40
2019-02-02T04:05:17.204Z,21.60
2019-02-02T04:08:22.121Z,20.17
2019-02-02T04:11:27.205Z,20.87
2019-02-02T04:14:32.339Z,21.80
2019-02-02T04:17:37.276Z,21.20
2019-02-02T04:20:42.743Z,21.60
2019-02-02T04:23:48.074Z,19.23
2019-02-02T04:26:53.025Z,22.83
2019-02-02T04:29:58.255Z,20.47
2019-02-02T04:33:03.087Z,19.37
2019-02-02T04:36:08.028Z,21.77
2019-02-02T04:39:13.021Z,19.30
2019-02-02T04:42:17.914Z,19.43
2019-02-02T04:45:23.019Z,19.00
2019-02-02T04:48:28.004Z,18.90
2019-02-02T04:51:32.860Z,19.37
2019-02-02T04:54:38.130Z,18.27
2019-02-02T04:57:43.769Z,19.17
2019-02-02T05:00:49.038Z,17.93
2019-02-02T05:03:53.933Z,18.30
2019-02-02T05:06:58.843Z,17.70
2019-02-02T05:10:04.133Z,18.47
2019-02-02T05:13:09.115Z,16.57
2019-02-02T05:16:14.043Z,15.20
2019-02-02T05:19:18.979Z,16.80
2019-02-02T05:22:23.980Z,17.90
2019-02-02T05:25:29.136Z,17.57
2019-02-02T05:28:34.061Z,15.43
2019-02-02T05:31:39.221Z,16.87
2019-02-02T05:34:44.229Z,14.47
2019-02-02T05:37:48.972Z,15.03
2019-02-02T05:40:53.651Z,15.13
2019-02-02T05:43:58.622Z,13.73
2019-02-02T05:47:03.721Z,15.77
2019-02-02T05:50:10.690Z,14.83
2019-02-02T05:53:15.707Z,14.37
2019-02-02T05:56:20.964Z,14.73
2019-02-02T05:59:25.884Z,14.97
2019-02-02T06:02:30.793Z,17.80
2019-02-02T06:05:35.869Z,17.23
2019-02-02T06:08:41.136Z,17.30
2019-02-02T06:11:46.036Z,16.87
2019-02-02T06:14:51.238Z,14.43
2019-02-02T06:17:56.165Z,13.70
2019-02-02T06:21:01.283Z,14.33
2019-02-02T06:24:06.249Z,14.60
2019-02-02T06:27:11.321Z,14.53
2019-02-02T06:30:17.913Z,15.70
2019-02-02T06:33:23.049Z,13.57
2019-02-02T06:36:28.112Z,13.40
2019-02-02T06:39:33.331Z,12.77
2019-02-02T06:42:38.339Z,10.50
2019-02-02T06:45:43.847Z,9.93
2019-02-02T06:48:48.986Z,9.60
2019-02-02T06:51:54.005Z,9.80
2019-02-02T06:54:59.290Z,10.90
2019-02-02T06:58:04.391Z,10.17
2019-02-02T07:01:09.671Z,10.37
2019-02-02T07:04:15.043Z,9.87
2019-02-02T07:07:19.969Z,9.33
2019-02-02T07:10:26.154Z,9.33
2019-02-02T07:13:31.162Z,10.40
2019-02-02T07:16:36.269Z,10.07
2019-02-02T07:19:41.244Z,9.77
2019-02-02T07:22:46.246Z,10.10
2019-02-02T07:25:51.292Z,10.27
2019-02-02T07:28:56.507Z,9.03
2019-02-02T07:32:01.523Z,8.73
2019-02-02T07:35:08.505Z,9.70
2019-02-02T07:38:13.408Z,9.63
2019-02-02T07:41:18.246Z,9.70
2019-02-02T07:44:23.223Z,9.20
2019-02-02T07:47:28.188Z,9.27
2019-02-02T07:50:33.062Z,8.50
2019-02-02T07:53:38.079Z,9.00
2019-02-02T07:56:43.073Z,9.67
2019-02-02T07:59:48.111Z,8.97
2019-02-02T08:02:53.144Z,8.90
2019-02-02T08:05:58.225Z,9.63
2019-02-02T08:09:04.811Z,10.00
2019-02-02T08:12:09.848Z,9.57
2019-02-02T08:15:20.252Z,9.13
2019-02-02T08:18:25.061Z,9.17
2019-02-02T08:21:30.106Z,10.10
2019-02-02T08:24:35.215Z,8.87
2019-02-02T08:27:40.286Z,9.60
2019-02-02T08:30:52.488Z,9.08
2019-02-02T08:33:52.469Z,10.00
2019-02-02T08:36:57.597Z,8.10
2019-02-02T08:40:02.822Z,9.00
2019-02-02T08:43:09.649Z,8.80
2019-02-02T08:46:14.720Z,7.37
2019-02-02T08:49:19.819Z,8.20
2019-02-02T08:52:24.802Z,7.93
2019-02-02T08:55:30.066Z,8.30
2019-02-02T08:58:35.088Z,7.17
2019-02-02T09:01:40.213Z,8.07
2019-02-02T09:04:45.290Z,8.03
2019-02-02T09:07:50.287Z,7.80
2019-02-02T09:10:55.265Z,7.90
2019-02-02T09:14:00.297Z,12.03
2019-02-02T09:17:24.153Z,8.00
2019-02-02T09:20:29.020Z,6.97
2019-02-02T09:23:33.945Z,8.73
2019-02-02T09:26:38.964Z,7.03
2019-02-02T09:29:43.945Z,9.97
2019-02-02T09:32:48.978Z,6.17
2019-02-02T09:35:53.900Z,7.00
2019-02-02T09:38:58.848Z,6.70
2019-02-02T09:42:03.880Z,10.20
2019-02-02T09:45:10.226Z,9.20
2019-02-02T09:48:15.225Z,6.07
2019-02-02T09:51:20.280Z,6.73
2019-02-02T09:54:26.605Z,8.00
2019-02-02T09:57:32.215Z,7.57
2019-02-02T10:00:37.116Z,6.80
2019-02-02T10:03:42.167Z,7.90
2019-02-02T10:06:47.192Z,8.40
2019-02-02T10:10:13.053Z,7.20
2019-02-02T10:13:18.010Z,10.40
2019-02-02T10:16:23.108Z,10.20
2019-02-02T10:19:28.137Z,12.30
2019-02-02T10:22:33.414Z,12.90
2019-02-02T10:25:38.395Z,22.30
2019-02-02T10:28:43.203Z,17.60
2019-02-02T10:31:48.167Z,27.03
2019-02-02T10:34:53.080Z,7.90
2019-02-02T10:37:58.036Z,15.80
2019-02-02T10:41:02.976Z,6.67
2019-02-02T10:44:08.372Z,7.07
2019-02-02T10:47:13.468Z,8.23
2019-02-02T10:50:19.681Z,8.23
2019-02-02T10:53:24.844Z,8.07
2019-02-02T10:56:29.866Z,10.40
2019-02-02T10:59:35.216Z,12.07
2019-02-02T11:02:40.442Z,10.50
2019-02-02T11:05:45.607Z,10.63
2019-02-02T11:08:50.542Z,10.00
2019-02-02T11:11:55.438Z,10.10
2019-02-02T11:15:00.441Z,11.27
2019-02-02T11:18:06.795Z,10.00
2019-02-02T11:21:11.987Z,10.00
2019-02-02T11:24:19.022Z,10.27
2019-02-02T11:27:23.479Z,10.17
2019-02-02T11:30:29.421Z,9.40
2019-02-02T11:33:34.593Z,10.77
2019-02-02T11:36:39.764Z,10.90
2019-02-02T11:39:44.786Z,9.90
2019-02-02T11:42:49.776Z,10.77
2019-02-02T11:45:54.908Z,10.00
2019-02-02T11:48:59.881Z,8.63
2019-02-02T11:52:05.026Z,8.37
2019-02-02T11:55:10.650Z,8.33
2019-02-02T11:58:15.677Z,8.03
2019-02-02T12:01:20.777Z,7.90
2019-02-02T12:04:26.096Z,7.80
2019-02-02T12:07:31.338Z,6.83
2019-02-02T12:10:36.765Z,6.80
2019-02-02T12:13:41.895Z,6.53
2019-02-02T12:16:46.915Z,6.10
2019-02-02T12:19:51.857Z,6.13
2019-02-02T12:22:56.985Z,7.70
2019-02-02T12:26:02.295Z,9.10
2019-02-02T12:29:07.600Z,8.00
2019-02-02T12:32:12.825Z,7.63
2019-02-02T12:35:22.805Z,6.00
2019-02-02T12:38:28.008Z,6.00
2019-02-02T12:41:32.986Z,5.67
2019-02-02T12:44:38.087Z,7.40
2019-02-02T12:47:44.812Z,6.47
2019-02-02T12:50:49.760Z,6.50
2019-02-02T12:53:55.812Z,6.57
2019-02-02T12:57:00.851Z,7.03
2019-02-02T13:00:07.625Z,6.13
2019-02-02T13:03:12.649Z,6.23
2019-02-02T13:06:17.725Z,5.00
2019-02-02T13:09:22.929Z,4.63
2019-02-02T13:12:27.876Z,3.70
2019-02-02T13:15:32.743Z,4.13
2019-02-02T13:18:37.796Z,4.07
2019-02-02T13:21:43.103Z,3.17
2019-02-02T13:24:48.965Z,3.92
2019-02-02T13:27:53.977Z,3.43
2019-02-02T13:30:59.173Z,3.27
2019-02-02T13:34:04.186Z,3.53
2019-02-02T13:37:09.425Z,4.97
2019-02-02T13:40:16.717Z,2.70
2019-02-02T13:43:21.780Z,2.03
2019-02-02T13:46:26.826Z,2.87
2019-02-02T13:49:32.100Z,2.30
2019-02-02T13:52:37.340Z,2.63
2019-02-02T13:55:42.238Z,1.70
2019-02-02T13:58:47.233Z,5.83
2019-02-02T14:01:52.374Z,2.50
2019-02-02T14:04:57.381Z,2.00
2019-02-02T14:08:13.691Z,2.00
2019-02-02T14:11:18.789Z,1.43
2019-02-02T14:14:23.718Z,1.63
2019-02-02T14:17:47.636Z,1.20
2019-02-02T14:20:52.747Z,1.30
2019-02-02T14:23:57.910Z,0.93
2019-02-02T14:27:03.012Z,1.20
2019-02-02T14:30:11.660Z,0.83
2019-02-02T14:33:16.703Z,1.43
2019-02-02T14:36:21.761Z,0.93
2019-02-02T14:39:33.731Z,3.50
2019-02-02T14:42:38.810Z,1.13
2019-02-02T14:45:44.168Z,0.90
2019-02-02T14:48:49.870Z,1.00
2019-02-02T14:51:54.985Z,0.93
2019-02-02T14:55:00.358Z,1.20
2019-02-02T14:58:05.767Z,0.90
2019-02-02T15:01:10.802Z,1.10
2019-02-02T15:04:15.837Z,0.70
2019-02-02T15:07:21.144Z,0.93
2019-02-02T15:10:26.688Z,1.10
2019-02-02T15:13:31.626Z,1.20
2019-02-02T15:16:36.793Z,1.37
2019-02-02T15:19:42.213Z,1.50
2019-02-02T15:22:47.158Z,0.90
2019-02-02T15:25:52.205Z,0.93
2019-02-02T15:28:57.450Z,1.10
2019-02-02T15:32:02.560Z,1.07
2019-02-02T15:35:07.536Z,1.03
2019-02-02T15:38:12.568Z,1.30
2019-02-02T15:41:17.693Z,1.13
2019-02-02T15:44:22.673Z,1.30
2019-02-02T15:47:27.679Z,1.30
2019-02-02T15:50:32.697Z,1.20
2019-02-02T15:53:37.668Z,12.30
2019-02-02T15:56:42.417Z,45.63
2019-02-02T15:59:47.163Z,13.00
2019-02-02T16:02:51.915Z,4.30
2019-02-02T16:05:56.902Z,1.50
2019-02-02T16:09:02.125Z,2.20
2019-02-02T16:12:07.272Z,1.77
2019-02-02T16:15:12.834Z,1.80
2019-02-02T16:18:17.772Z,1.70
2019-02-02T16:21:22.893Z,3.13
2019-02-02T16:24:27.874Z,1.83
2019-02-02T16:27:32.848Z,2.20
2019-02-02T16:30:38.006Z,5.63
2019-02-02T16:33:43.414Z,10.57
2019-02-02T16:36:48.373Z,7.20
2019-02-02T16:39:53.386Z,4.87
2019-02-02T16:42:58.467Z,6.50
2019-02-02T16:46:03.401Z,4.90
2019-02-02T16:49:08.664Z,6.00
2019-02-02T16:52:13.698Z,5.40
2019-02-02T16:55:19.045Z,5.33
2019-02-02T16:58:25.956Z,7.27
2019-02-02T17:01:31.117Z,6.63
2019-02-02T17:04:36.099Z,5.43
2019-02-02T17:07:41.110Z,6.50
2019-02-02T17:10:50.706Z,5.63
2019-02-02T17:13:56.849Z,5.37
2019-02-02T17:17:02.079Z,5.50
2019-02-02T17:20:10.759Z,5.90
2019-02-02T17:23:16.025Z,7.60
2019-02-02T17:26:21.155Z,8.13
2019-02-02T17:29:26.142Z,8.07
2019-02-02T17:32:31.124Z,8.03
2019-02-02T17:35:36.341Z,7.57
2019-02-02T17:38:41.559Z,8.40
2019-02-02T17:41:46.644Z,8.50
2019-02-02T17:44:51.861Z,8.70
2019-02-02T17:47:57.695Z,9.73
2019-02-02T17:51:02.744Z,8.83
2019-02-02T17:54:08.685Z,8.70
2019-02-02T17:57:13.593Z,7.17
2019-02-02T18:00:22.886Z,6.40
2019-02-02T18:03:27.751Z,6.70
2019-02-02T18:06:35.954Z,7.10
2019-02-02T18:09:41.156Z,18.90
2019-02-02T18:12:46.130Z,13.10
2019-02-02T18:15:51.031Z,20.57
2019-02-02T18:18:56.121Z,12.50
2019-02-02T18:22:01.367Z,11.07
2019-02-02T18:25:08.137Z,9.80
2019-02-02T18:28:13.281Z,8.13
2019-02-02T18:31:18.104Z,10.27
2019-02-02T18:34:23.092Z,10.27
2019-02-02T18:37:28.049Z,8.63
2019-02-02T18:40:33.158Z,7.53
2019-02-02T18:43:38.233Z,8.17
2019-02-02T18:46:43.406Z,8.63
2019-02-02T18:49:48.601Z,9.57
2019-02-02T18:52:55.168Z,8.90
2019-02-02T18:56:11.733Z,11.77
2019-02-02T18:59:16.755Z,9.73
2019-02-02T19:02:22.159Z,10.50
2019-02-02T19:05:29.246Z,8.90
2019-02-02T19:08:34.248Z,8.27
2019-02-02T19:11:39.386Z,7.37
2019-02-02T19:14:44.504Z,7.13
2019-02-02T19:17:49.502Z,6.73
2019-02-02T19:20:54.350Z,6.60
2019-02-02T19:24:01.452Z,7.80
2019-02-02T19:27:08.757Z,6.60
2019-02-02T19:30:21.391Z,7.73
2019-02-02T19:33:26.668Z,7.50
2019-02-02T19:36:31.816Z,7.23
2019-02-02T19:39:44.789Z,10.33
2019-02-02T19:42:49.149Z,9.60
2019-02-02T19:45:54.097Z,9.73
2019-02-02T19:48:59.299Z,8.40
2019-02-02T19:52:05.984Z,9.77
2019-02-02T19:55:14.642Z,10.53
2019-02-02T19:58:18.498Z,8.90
2019-02-02T20:01:23.723Z,9.50
2019-02-02T20:04:29.239Z,11.20
2019-02-02T20:07:34.485Z,10.13
2019-02-02T20:10:39.531Z,9.57
2019-02-02T20:13:44.557Z,9.13
2019-02-02T20:16:49.668Z,11.53
2019-02-02T20:19:56.128Z,18.23
2019-02-02T20:23:01.320Z,20.70
2019-02-02T20:26:08.105Z,15.50
2019-02-02T20:29:13.504Z,12.13
2019-02-02T20:32:18.582Z,10.90
2019-02-02T20:35:25.147Z,11.17
2019-02-02T20:38:31.336Z,9.10
2019-02-02T20:41:36.551Z,7.70
2019-02-02T20:44:41.530Z,7.80
2019-02-02T20:47:48.215Z,9.00
2019-02-02T20:50:53.350Z,7.70
2019-02-02T20:53:59.354Z,6.40
2019-02-02T20:57:05.517Z,6.60
2019-02-02T21:00:14.880Z,7.80
2019-02-02T21:03:20.216Z,7.63
2019-02-02T21:06:25.140Z,7.10
2019-02-02T21:09:30.311Z,7.17
2019-02-02T21:12:35.407Z,6.80
2019-02-02T21:15:40.346Z,6.60
2019-02-02T21:18:46.181Z,7.30
2019-02-02T21:21:52.413Z,6.12
2019-02-02T21:24:57.674Z,7.00
2019-02-02T21:28:03.094Z,6.33
2019-02-02T21:31:09.057Z,7.13
2019-02-02T21:34:14.826Z,6.67
2019-02-02T21:37:19.832Z,6.03
2019-02-02T21:40:28.450Z,6.70
2019-02-02T21:43:33.806Z,7.10
2019-02-02T21:46:38.995Z,7.30
2019-02-02T21:49:43.929Z,7.27
2019-02-02T21:52:49.274Z,7.43
2019-02-02T21:55:54.600Z,7.63
2019-02-02T21:58:59.606Z,6.90
2019-02-02T22:02:05.011Z,5.87
2019-02-02T22:05:10.449Z,6.27
2019-02-02T22:08:15.687Z,5.43
2019-02-02T22:11:20.862Z,4.00
2019-02-02T22:14:26.127Z,3.63
2019-02-02T22:17:31.196Z,3.27
2019-02-02T22:20:36.418Z,3.57
2019-02-02T22:23:41.496Z,3.27
2019-02-02T22:26:47.948Z,3.20
2019-02-02T22:29:53.184Z,3.17
2019-02-02T22:32:58.299Z,3.27
2019-02-02T22:36:03.685Z,2.83
2019-02-02T22:39:09.758Z,3.60
2019-02-02T22:42:17.088Z,3.70
2019-02-02T22:45:22.931Z,3.53
2019-02-02T22:48:27.977Z,6.40
2019-02-02T22:51:33.512Z,4.10
2019-02-02T22:54:39.730Z,3.80
2019-02-02T22:57:47.202Z,4.33
2019-02-02T23:01:28.096Z,4.08
2019-02-02T23:05:15.316Z,4.00
2019-02-02T23:08:47.497Z,5.13
2019-02-02T23:12:07.789Z,4.20
2019-02-02T23:15:38.154Z,4.90
2019-02-02T23:18:43.283Z,4.60
2019-02-02T23:21:48.672Z,6.20
2019-02-02T23:24:53.683Z,7.70
2019-02-02T23:27:58.940Z,7.33
2019-02-02T23:31:03.947Z,7.47
2019-02-02T23:34:09.413Z,7.67
2019-02-02T23:37:14.779Z,8.30
2019-02-02T23:40:19.731Z,8.27
2019-02-02T23:43:24.944Z,7.43
2019-02-02T23:46:30.208Z,8.87
2019-02-02T23:49:35.202Z,8.03
2019-02-02T23:52:40.237Z,9.00
2019-02-02T23:55:45.199Z,9.37
2019-02-02T23:58:50.365Z,9.13
